createdAt,value
2023-05-03T00:00:46.963Z,464.00
2023-05-03T00:01:47.008Z,463.00
2023-05-03T00:02:47.065Z,461.00
2023-05-03T00:03:47.023Z,463.00
2023-05-03T00:04:47.021Z,461.00
2023-05-03T00:05:47.017Z,462.00
2023-05-03T00:06:47.136Z,462.00
2023-05-03T00:07:47.044Z,462.00
2023-05-03T00:08:47.034Z,460.00
2023-05-03T00:09:47.003Z,461.00
2023-05-03T00:10:47.044Z,462.00
2023-05-03T00:11:47.037Z,462.00
2023-05-03T00:12:47.047Z,462.00
2023-05-03T00:13:47.058Z,462.00
2023-05-03T00:14:47.153Z,463.00
2023-05-03T00:15:47.046Z,464.00
2023-05-03T00:16:47.084Z,464.00
2023-05-03T00:17:47.156Z,465.00
2023-05-03T00:18:49.142Z,465.00
2023-05-03T00:19:47.090Z,463.00
2023-05-03T00:20:47.137Z,462.00
2023-05-03T00:21:47.113Z,462.00
2023-05-03T00:22:47.129Z,463.00
2023-05-03T00:23:47.125Z,462.00
2023-05-03T00:24:47.127Z,463.00
2023-05-03T00:25:47.159Z,462.00
2023-05-03T00:26:47.147Z,462.00
2023-05-03T00:27:47.157Z,458.00
2023-05-03T00:28:47.287Z,461.00
2023-05-03T00:29:47.199Z,462.00
2023-05-03T00:30:47.249Z,460.00
2023-05-03T00:31:47.211Z,456.00
2023-05-03T00:32:47.266Z,454.00
2023-05-03T00:33:47.243Z,456.00
2023-05-03T00:34:47.238Z,456.00
2023-05-03T00:35:47.280Z,458.00
2023-05-03T00:36:47.279Z,459.00
2023-05-03T00:37:47.285Z,458.00
2023-05-03T00:38:47.330Z,460.00
2023-05-03T00:39:47.346Z,459.00
2023-05-03T00:40:47.382Z,459.00
2023-05-03T00:41:47.373Z,461.00
2023-05-03T00:42:47.386Z,459.00
2023-05-03T00:43:47.393Z,457.00
2023-05-03T00:44:47.448Z,458.00
2023-05-03T00:45:47.474Z,458.00
2023-05-03T00:46:47.524Z,458.00
2023-05-03T00:47:47.527Z,457.00
2023-05-03T00:48:47.528Z,458.00
2023-05-03T00:49:47.548Z,457.00
2023-05-03T00:50:47.569Z,458.00
2023-05-03T00:51:47.608Z,458.00
2023-05-03T00:52:47.626Z,460.00
2023-05-03T00:53:47.630Z,460.00
2023-05-03T00:54:47.677Z,460.00
2023-05-03T00:55:47.701Z,458.00
2023-05-03T00:56:51.581Z,455.00
2023-05-03T00:57:47.705Z,456.00
2023-05-03T00:58:47.704Z,457.00
2023-05-03T00:59:47.717Z,456.00
2023-05-03T01:00:48.392Z,455.00
2023-05-03T01:01:47.726Z,455.00
2023-05-03T01:02:47.737Z,453.00
2023-05-03T01:03:47.739Z,455.00
2023-05-03T01:04:47.690Z,457.00
2023-05-03T01:05:47.672Z,456.00
2023-05-03T01:06:47.702Z,456.00
2023-05-03T01:07:47.646Z,455.00
2023-05-03T01:08:47.671Z,457.00
2023-05-03T01:09:47.633Z,457.00
2023-05-03T01:10:47.649Z,457.00
2023-05-03T01:11:47.631Z,458.00
2023-05-03T01:12:47.629Z,457.00
2023-05-03T01:13:47.606Z,456.00
2023-05-03T01:14:47.602Z,455.00
2023-05-03T01:15:47.612Z,453.00
2023-05-03T01:16:47.579Z,452.00
2023-05-03T01:17:47.629Z,452.00
2023-05-03T01:18:47.553Z,453.00
2023-05-03T01:19:47.563Z,454.00
2023-05-03T01:20:47.579Z,455.00
2023-05-03T01:21:47.576Z,457.00
2023-05-03T01:22:47.574Z,455.00
2023-05-03T01:23:47.642Z,456.00
2023-05-03T01:24:47.669Z,457.00
2023-05-03T01:25:47.675Z,455.00
2023-05-03T01:26:47.732Z,455.00
2023-05-03T01:27:47.745Z,454.00
2023-05-03T01:28:47.772Z,453.00
2023-05-03T01:29:47.848Z,453.00
2023-05-03T01:30:47.852Z,454.00
2023-05-03T01:31:47.940Z,455.00
2023-05-03T01:32:47.992Z,453.00
2023-05-03T01:33:47.971Z,454.00
2023-05-03T01:34:48.016Z,451.00
2023-05-03T01:35:48.070Z,451.00
2023-05-03T01:36:48.101Z,448.00
2023-05-03T01:37:48.133Z,449.00
2023-05-03T01:38:48.179Z,448.00
2023-05-03T01:39:48.238Z,448.00
2023-05-03T01:40:48.254Z,448.00
2023-05-03T01:41:48.324Z,449.00
2023-05-03T01:42:48.376Z,449.00
2023-05-03T01:43:48.394Z,452.00
2023-05-03T01:44:48.438Z,453.00
2023-05-03T01:45:48.513Z,452.00
2023-05-03T01:46:48.543Z,451.00
2023-05-03T01:47:48.698Z,451.00
2023-05-03T01:48:48.593Z,449.00
2023-05-03T01:49:48.651Z,446.00
2023-05-03T01:50:48.644Z,444.00
2023-05-03T01:51:48.730Z,445.00
2023-05-03T01:52:48.776Z,444.00
2023-05-03T01:53:48.805Z,446.00
2023-05-03T01:54:48.835Z,446.00
2023-05-03T01:55:48.862Z,448.00
2023-05-03T01:56:48.928Z,449.00
2023-05-03T01:57:48.954Z,448.00
2023-05-03T01:58:49.011Z,450.00
2023-05-03T01:59:49.037Z,449.00
2023-05-03T02:00:49.143Z,451.00
2023-05-03T02:01:49.102Z,450.00
2023-05-03T02:02:49.146Z,451.00
2023-05-03T02:03:49.178Z,452.00
2023-05-03T02:04:49.301Z,451.00
2023-05-03T02:05:49.232Z,452.00
2023-05-03T02:06:49.261Z,454.00
2023-05-03T02:07:49.279Z,452.00
2023-05-03T02:08:49.291Z,451.00
2023-05-03T02:09:49.332Z,452.00
2023-05-03T02:10:49.386Z,454.00
2023-05-03T02:11:49.414Z,457.00
2023-05-03T02:12:49.424Z,457.00
2023-05-03T02:13:49.468Z,457.00
2023-05-03T02:14:49.520Z,455.00
2023-05-03T02:15:49.500Z,453.00
2023-05-03T02:16:49.583Z,451.00
2023-05-03T02:17:49.803Z,452.00
2023-05-03T02:18:49.617Z,452.00
2023-05-03T02:19:49.675Z,454.00
2023-05-03T02:20:49.709Z,455.00
2023-05-03T02:21:49.742Z,456.00
2023-05-03T02:22:49.800Z,457.00
2023-05-03T02:23:49.828Z,460.00
2023-05-03T02:24:49.878Z,456.00
2023-05-03T02:25:49.906Z,456.00
2023-05-03T02:26:49.952Z,457.00
2023-05-03T02:27:49.965Z,456.00
2023-05-03T02:28:50.032Z,455.00
2023-05-03T02:29:50.087Z,454.00
2023-05-03T02:30:50.126Z,452.00
2023-05-03T02:31:50.157Z,452.00
2023-05-03T02:32:50.216Z,449.00
2023-05-03T02:33:50.270Z,450.00
2023-05-03T02:34:50.295Z,450.00
2023-05-03T02:35:50.343Z,449.00
2023-05-03T02:36:50.390Z,453.00
2023-05-03T02:37:50.468Z,455.00
2023-05-03T02:38:50.487Z,454.00
2023-05-03T02:39:50.513Z,454.00
2023-05-03T02:40:50.590Z,454.00
2023-05-03T02:41:50.652Z,456.00
2023-05-03T02:42:50.676Z,457.00
2023-05-03T02:43:50.777Z,460.00
2023-05-03T02:44:50.831Z,461.00
2023-05-03T02:45:50.959Z,463.00
2023-05-03T02:46:50.853Z,464.00
2023-05-03T02:47:50.965Z,464.00
2023-05-03T02:48:50.966Z,461.00
2023-05-03T02:49:50.995Z,461.00
2023-05-03T02:50:51.083Z,458.00
2023-05-03T02:51:51.107Z,456.00
2023-05-03T02:52:51.163Z,455.00
2023-05-03T02:53:51.209Z,459.00
2023-05-03T02:54:51.306Z,460.00
2023-05-03T02:55:51.363Z,457.00
2023-05-03T02:56:51.431Z,457.00
2023-05-03T02:57:51.471Z,456.00
2023-05-03T02:58:51.501Z,455.00
2023-05-03T02:59:51.567Z,452.00
2023-05-03T03:00:51.599Z,453.00
2023-05-03T03:01:51.690Z,453.00
2023-05-03T03:02:51.775Z,454.00
2023-05-03T03:03:51.957Z,453.00
2023-05-03T03:04:51.830Z,453.00
2023-05-03T03:05:51.896Z,450.00
2023-05-03T03:06:52.068Z,451.00
2023-05-03T03:07:52.007Z,451.00
2023-05-03T03:08:52.039Z,451.00
2023-05-03T03:09:52.071Z,449.00
2023-05-03T03:10:52.126Z,447.00
2023-05-03T03:11:52.197Z,449.00
2023-05-03T03:12:52.241Z,449.00
2023-05-03T03:13:52.291Z,448.00
2023-05-03T03:14:52.367Z,450.00
2023-05-03T03:15:52.449Z,452.00
2023-05-03T03:16:52.453Z,452.00
2023-05-03T03:17:52.655Z,453.00
2023-05-03T03:18:52.592Z,452.00
2023-05-03T03:19:52.645Z,451.00
2023-05-03T03:20:52.737Z,451.00
2023-05-03T03:21:52.761Z,448.00
2023-05-03T03:22:52.827Z,447.00
2023-05-03T03:23:52.882Z,444.00
2023-05-03T03:24:52.953Z,445.00
2023-05-03T03:25:53.022Z,445.00
2023-05-03T03:26:53.048Z,446.00
2023-05-03T03:27:53.087Z,450.00
2023-05-03T03:28:53.132Z,448.00
2023-05-03T03:29:53.164Z,446.00
2023-05-03T03:30:53.214Z,445.00
2023-05-03T03:31:53.311Z,444.00
2023-05-03T03:32:53.373Z,443.00
2023-05-03T03:33:53.327Z,444.00
2023-05-03T03:34:53.376Z,444.00
2023-05-03T03:35:53.414Z,444.00
2023-05-03T03:36:53.427Z,443.00
2023-05-03T03:37:53.511Z,447.00
2023-05-03T03:38:53.547Z,448.00
2023-05-03T03:39:53.603Z,450.00
2023-05-03T03:40:53.672Z,452.00
2023-05-03T03:41:53.667Z,451.00
2023-05-03T03:42:53.725Z,451.00
2023-05-03T03:43:53.784Z,450.00
2023-05-03T03:44:54.472Z,452.00
2023-05-03T03:45:53.895Z,451.00
2023-05-03T03:46:53.966Z,452.00
2023-05-03T03:47:54.080Z,452.00
2023-05-03T03:48:54.043Z,452.00
2023-05-03T03:49:54.106Z,452.00
2023-05-03T03:50:54.138Z,454.00
2023-05-03T03:51:54.225Z,453.00
2023-05-03T03:52:54.276Z,454.00
2023-05-03T03:53:54.314Z,454.00
2023-05-03T03:54:54.380Z,454.00
2023-05-03T03:55:54.435Z,455.00
2023-05-03T03:56:54.467Z,455.00
2023-05-03T03:57:54.526Z,456.00
2023-05-03T03:58:54.593Z,457.00
2023-05-03T03:59:54.624Z,455.00
2023-05-03T04:00:54.691Z,454.00
2023-05-03T04:01:54.800Z,455.00
2023-05-03T04:02:54.881Z,454.00
2023-05-03T04:03:54.916Z,453.00
2023-05-03T04:04:54.896Z,453.00
2023-05-03T04:05:54.982Z,452.00
2023-05-03T04:06:55.010Z,450.00
2023-05-03T04:07:55.090Z,450.00
2023-05-03T04:08:55.142Z,450.00
2023-05-03T04:09:55.167Z,450.00
2023-05-03T04:10:55.251Z,452.00
2023-05-03T04:11:55.317Z,451.00
2023-05-03T04:12:55.356Z,451.00
2023-05-03T04:13:55.437Z,452.00
2023-05-03T04:14:55.479Z,453.00
2023-05-03T04:15:55.548Z,453.00
2023-05-03T04:16:55.608Z,454.00
2023-05-03T04:17:55.660Z,455.00
2023-05-03T04:18:55.719Z,456.00
2023-05-03T04:19:55.755Z,454.00
2023-05-03T04:20:55.822Z,456.00
2023-05-03T04:21:55.858Z,456.00
2023-05-03T04:22:55.933Z,453.00
2023-05-03T04:23:56.014Z,452.00
2023-05-03T04:24:56.035Z,451.00
2023-05-03T04:25:56.123Z,451.00
2023-05-03T04:26:56.200Z,453.00
2023-05-03T04:27:56.257Z,456.00
2023-05-03T04:28:56.287Z,457.00
2023-05-03T04:29:56.381Z,457.00
2023-05-03T04:30:56.439Z,457.00
2023-05-03T04:31:56.468Z,457.00
2023-05-03T04:32:56.520Z,456.00
2023-05-03T04:33:56.617Z,458.00
2023-05-03T04:34:56.624Z,458.00
2023-05-03T04:35:56.689Z,460.00
2023-05-03T04:36:56.722Z,462.00
2023-05-03T04:37:56.756Z,463.00
2023-05-03T04:38:56.801Z,462.00
2023-05-03T04:39:56.834Z,463.00
2023-05-03T04:40:56.913Z,462.00
2023-05-03T04:41:56.908Z,461.00
2023-05-03T04:42:56.951Z,459.00
2023-05-03T04:43:57.008Z,458.00
2023-05-03T04:44:57.007Z,460.00
2023-05-03T04:45:57.145Z,460.00
2023-05-03T04:46:57.204Z,461.00
2023-05-03T04:47:57.214Z,460.00
2023-05-03T04:48:57.263Z,458.00
2023-05-03T04:49:57.292Z,456.00
2023-05-03T04:50:57.373Z,454.00
2023-05-03T04:51:57.405Z,455.00
2023-05-03T04:52:57.477Z,457.00
2023-05-03T04:53:57.498Z,458.00
2023-05-03T04:54:57.562Z,456.00
2023-05-03T04:55:57.589Z,455.00
2023-05-03T04:56:57.614Z,455.00
2023-05-03T04:57:57.665Z,456.00
2023-05-03T04:58:57.642Z,456.00
2023-05-03T04:59:57.690Z,460.00
2023-05-03T05:00:57.703Z,459.00
2023-05-03T05:01:57.786Z,460.00
2023-05-03T05:02:57.865Z,461.00
2023-05-03T05:03:57.848Z,463.00
2023-05-03T05:04:57.789Z,460.00
2023-05-03T05:05:57.824Z,461.00
2023-05-03T05:06:57.855Z,459.00
2023-05-03T05:07:57.889Z,459.00
2023-05-03T05:08:57.880Z,458.00
2023-05-03T05:09:57.902Z,458.00
2023-05-03T05:10:57.919Z,458.00
2023-05-03T05:11:57.924Z,459.00
2023-05-03T05:12:57.955Z,460.00
2023-05-03T05:13:57.941Z,458.00
2023-05-03T05:14:57.977Z,458.00
2023-05-03T05:15:57.999Z,459.00
2023-05-03T05:16:58.088Z,461.00
2023-05-03T05:17:58.078Z,463.00
2023-05-03T05:18:57.994Z,464.00
2023-05-03T05:19:58.014Z,464.00
2023-05-03T05:20:58.020Z,466.00
2023-05-03T05:21:58.059Z,467.00
2023-05-03T05:22:58.050Z,466.00
2023-05-03T05:23:58.045Z,462.00
2023-05-03T05:24:58.051Z,459.00
2023-05-03T05:25:58.069Z,457.00
2023-05-03T05:26:58.035Z,456.00
2023-05-03T05:27:58.047Z,456.00
2023-05-03T05:28:58.090Z,457.00
2023-05-03T05:29:58.064Z,458.00
2023-05-03T05:30:58.065Z,458.00
2023-05-03T05:31:58.112Z,455.00
2023-05-03T05:32:58.106Z,456.00
2023-05-03T05:33:58.046Z,456.00
2023-05-03T05:34:58.080Z,457.00
2023-05-03T05:35:58.129Z,456.00
2023-05-03T05:36:58.172Z,455.00
2023-05-03T05:37:58.509Z,458.00
2023-05-03T05:38:58.230Z,463.00
2023-05-03T05:39:58.273Z,472.00
2023-05-03T05:40:58.373Z,478.00
2023-05-03T05:41:58.434Z,481.00
2023-05-03T05:42:58.514Z,486.00
2023-05-03T05:43:58.562Z,492.00
2023-05-03T05:44:58.597Z,541.00
2023-05-03T05:45:58.597Z,596.00
2023-05-03T05:46:58.750Z,592.00
2023-05-03T05:47:58.741Z,596.00
2023-05-03T05:48:58.722Z,600.00
2023-05-03T05:49:58.736Z,642.00
2023-05-03T05:50:58.758Z,667.00
2023-05-03T05:51:58.774Z,685.00
2023-05-03T05:52:58.913Z,703.00
2023-05-03T05:53:58.810Z,712.00
2023-05-03T05:54:58.826Z,752.00
2023-05-03T05:55:58.830Z,768.00
2023-05-03T05:56:58.834Z,779.00
2023-05-03T05:57:58.831Z,789.00
2023-05-03T05:58:58.845Z,821.00
2023-05-03T05:59:58.865Z,872.00
2023-05-03T06:00:58.870Z,877.00
2023-05-03T06:01:58.891Z,875.00
2023-05-03T06:02:59.067Z,896.00
2023-05-03T06:03:58.906Z,907.00
2023-05-03T06:04:58.999Z,923.00
2023-05-03T06:05:58.991Z,940.00
2023-05-03T06:06:59.036Z,953.00
2023-05-03T06:07:59.087Z,1023.00
2023-05-03T06:08:59.995Z,1019.00
2023-05-03T06:09:59.170Z,1021.00
2023-05-03T06:10:59.130Z,1021.00
2023-05-03T06:11:59.147Z,1021.00
2023-05-03T06:12:59.123Z,1023.00
2023-05-03T06:13:59.117Z,1028.00
2023-05-03T06:15:02.919Z,1039.00
2023-05-03T06:15:59.106Z,1045.00
2023-05-03T06:16:59.098Z,1055.00
2023-05-03T06:17:59.142Z,1065.00
2023-05-03T06:18:59.104Z,1071.00
2023-05-03T06:19:59.086Z,1077.00
2023-05-03T06:20:59.096Z,1084.00
2023-05-03T06:21:59.096Z,1092.00
2023-05-03T06:22:59.071Z,1096.00
2023-05-03T06:23:59.059Z,1098.00
2023-05-03T06:24:59.087Z,1105.00
2023-05-03T06:25:59.089Z,1111.00
2023-05-03T06:26:59.069Z,1109.00
2023-05-03T06:27:59.026Z,1112.00
2023-05-03T06:28:59.042Z,1120.00
2023-05-03T06:29:59.041Z,1129.00
2023-05-03T06:30:59.116Z,1139.00
2023-05-03T06:31:58.995Z,1145.00
2023-05-03T06:32:59.022Z,1148.00
2023-05-03T06:33:59.009Z,1155.00
2023-05-03T06:34:59.000Z,1162.00
2023-05-03T06:35:59.001Z,1164.00
2023-05-03T06:36:58.968Z,1171.00
2023-05-03T06:37:58.989Z,1176.00
2023-05-03T06:38:58.937Z,1184.00
2023-05-03T06:39:58.975Z,1191.00
2023-05-03T06:40:58.976Z,1196.00
2023-05-03T06:41:58.958Z,1198.00
2023-05-03T06:42:58.934Z,1195.00
2023-05-03T06:43:58.918Z,1196.00
2023-05-03T06:44:58.922Z,1196.00
2023-05-03T06:45:58.988Z,1189.00
2023-05-03T06:46:58.983Z,1176.00
2023-05-03T06:47:59.037Z,1174.00
2023-05-03T06:48:59.056Z,1118.00
2023-05-03T06:49:58.894Z,1112.00
2023-05-03T06:50:58.908Z,1155.00
2023-05-03T06:51:58.843Z,1163.00
2023-05-03T06:52:58.872Z,1158.00
2023-05-03T06:53:58.856Z,1153.00
2023-05-03T06:54:58.877Z,974.00
2023-05-03T06:55:58.830Z,975.00
2023-05-03T06:56:58.884Z,1087.00
2023-05-03T06:57:58.850Z,1047.00
2023-05-03T06:58:58.844Z,1059.00
2023-05-03T06:59:58.843Z,1080.00
2023-05-03T07:00:58.802Z,1097.00
2023-05-03T07:01:58.895Z,1113.00
2023-05-03T07:02:58.874Z,1125.00
2023-05-03T07:03:58.890Z,1144.00
2023-05-03T07:04:58.815Z,1145.00
2023-05-03T07:05:58.789Z,1155.00
2023-05-03T07:06:58.806Z,1162.00
2023-05-03T07:07:58.789Z,1165.00
2023-05-03T07:08:58.743Z,1170.00
2023-05-03T07:09:58.782Z,1172.00
2023-05-03T07:10:58.764Z,1168.00
2023-05-03T07:11:58.718Z,1171.00
2023-05-03T07:12:58.733Z,1178.00
2023-05-03T07:13:58.732Z,1176.00
2023-05-03T07:14:58.729Z,1178.00
2023-05-03T07:15:59.869Z,1179.00
2023-05-03T07:16:58.764Z,1173.00
2023-05-03T07:17:58.748Z,1170.00
2023-05-03T07:18:58.685Z,1172.00
2023-05-03T07:19:58.710Z,1174.00
2023-05-03T07:20:58.681Z,1174.00
2023-05-03T07:21:58.717Z,1176.00
2023-05-03T07:22:58.799Z,1173.00
2023-05-03T07:23:58.839Z,1168.00
2023-05-03T07:24:58.908Z,1162.00
2023-05-03T07:25:58.936Z,1160.00
2023-05-03T07:26:58.998Z,1150.00
2023-05-03T07:27:59.083Z,1150.00
2023-05-03T07:28:59.118Z,1154.00
2023-05-03T07:29:59.197Z,1155.00
2023-05-03T07:30:59.250Z,1158.00
2023-05-03T07:31:59.310Z,1164.00
2023-05-03T07:32:59.411Z,1167.00
2023-05-03T07:33:59.515Z,1170.00
2023-05-03T07:34:59.502Z,1172.00
2023-05-03T07:35:59.553Z,1174.00
2023-05-03T07:36:59.622Z,1173.00
2023-05-03T07:37:59.714Z,1163.00
2023-05-03T07:39:00.098Z,1153.00
2023-05-03T07:39:59.820Z,1148.00
2023-05-03T07:40:59.909Z,1147.00
2023-05-03T07:41:59.944Z,1065.00
2023-05-03T07:42:59.999Z,1053.00
2023-05-03T07:44:00.073Z,1004.00
2023-05-03T07:45:00.125Z,995.00
2023-05-03T07:46:00.212Z,993.00
2023-05-03T07:47:00.088Z,991.00
2023-05-03T07:48:00.152Z,965.00
2023-05-03T07:49:00.106Z,954.00
2023-05-03T07:50:00.200Z,941.00
2023-05-03T07:51:00.197Z,915.00
2023-05-03T07:52:00.152Z,892.00
2023-05-03T07:53:00.176Z,882.00
2023-05-03T07:54:00.210Z,861.00
2023-05-03T07:55:00.190Z,842.00
2023-05-03T07:56:00.254Z,833.00
2023-05-03T07:57:00.222Z,821.00
2023-05-03T07:58:00.276Z,811.00
2023-05-03T07:59:09.290Z,794.00
2023-05-03T08:00:01.511Z,755.00
2023-05-03T08:01:00.289Z,747.00
2023-05-03T08:02:01.785Z,740.00
2023-05-03T08:03:00.461Z,732.00
2023-05-03T08:04:00.442Z,726.00
2023-05-03T08:05:00.517Z,717.00
2023-05-03T08:06:00.276Z,706.00
2023-05-03T08:07:00.255Z,696.00
2023-05-03T08:08:00.260Z,689.00
2023-05-03T08:09:00.254Z,682.00
2023-05-03T08:10:00.354Z,675.00
2023-05-03T08:11:00.219Z,667.00
2023-05-03T08:12:00.196Z,657.00
2023-05-03T08:13:00.245Z,653.00
2023-05-03T08:14:00.276Z,642.00
2023-05-03T08:15:00.294Z,636.00
2023-05-03T08:16:00.447Z,629.00
2023-05-03T08:17:00.389Z,623.00
2023-05-03T08:18:00.431Z,616.00
2023-05-03T08:19:00.472Z,612.00
2023-05-03T08:20:00.506Z,606.00
2023-05-03T08:21:00.591Z,603.00
2023-05-03T08:22:00.636Z,597.00
2023-05-03T08:23:00.686Z,594.00
2023-05-03T08:24:00.748Z,591.00
2023-05-03T08:25:00.764Z,589.00
2023-05-03T08:26:00.815Z,589.00
2023-05-03T08:27:00.854Z,588.00
2023-05-03T08:28:00.874Z,587.00
2023-05-03T08:29:00.953Z,584.00
2023-05-03T08:30:01.313Z,584.00
2023-05-03T08:31:01.054Z,579.00
2023-05-03T08:32:01.065Z,581.00
2023-05-03T08:33:01.136Z,581.00
2023-05-03T08:34:01.570Z,577.00
2023-05-03T08:35:01.198Z,575.00
2023-05-03T08:36:01.225Z,576.00
2023-05-03T08:37:01.251Z,574.00
2023-05-03T08:38:01.266Z,575.00
2023-05-03T08:39:01.601Z,578.00
2023-05-03T08:40:01.597Z,577.00
2023-05-03T08:41:01.388Z,576.00
2023-05-03T08:42:01.435Z,572.00
2023-05-03T08:43:01.489Z,570.00
2023-05-03T08:44:01.576Z,569.00
2023-05-03T08:45:01.575Z,565.00
2023-05-03T08:46:01.576Z,568.00
2023-05-03T08:47:01.678Z,568.00
2023-05-03T08:48:01.665Z,568.00
2023-05-03T08:49:01.700Z,567.00
2023-05-03T08:50:01.943Z,565.00
2023-05-03T08:51:01.746Z,566.00
2023-05-03T08:52:01.799Z,563.00
2023-05-03T08:53:01.817Z,563.00
2023-05-03T08:54:01.865Z,564.00
2023-05-03T08:55:01.872Z,565.00
2023-05-03T08:56:01.859Z,568.00
2023-05-03T08:57:01.891Z,571.00
2023-05-03T08:58:01.938Z,577.00
2023-05-03T08:59:01.937Z,578.00
2023-05-03T09:00:02.111Z,578.00
2023-05-03T09:01:01.949Z,582.00
2023-05-03T09:02:02.292Z,587.00
2023-05-03T09:03:02.065Z,593.00
2023-05-03T09:04:02.162Z,596.00
2023-05-03T09:05:02.285Z,596.00
2023-05-03T09:06:02.136Z,595.00
2023-05-03T09:07:02.105Z,596.00
2023-05-03T09:08:02.143Z,597.00
2023-05-03T09:09:02.188Z,599.00
2023-05-03T09:10:02.240Z,602.00
2023-05-03T09:11:02.201Z,605.00
2023-05-03T09:12:02.210Z,608.00
2023-05-03T09:13:02.203Z,609.00
2023-05-03T09:14:02.231Z,613.00
2023-05-03T09:15:02.268Z,620.00
2023-05-03T09:16:02.314Z,622.00
2023-05-03T09:17:02.465Z,621.00
2023-05-03T09:18:02.310Z,624.00
2023-05-03T09:19:02.298Z,624.00
2023-05-03T09:20:02.512Z,623.00
2023-05-03T09:21:02.359Z,624.00
2023-05-03T09:22:02.350Z,625.00
2023-05-03T09:23:02.338Z,627.00
2023-05-03T09:24:02.381Z,629.00
2023-05-03T09:25:02.422Z,625.00
2023-05-03T09:26:02.400Z,627.00
2023-05-03T09:27:02.410Z,628.00
2023-05-03T09:28:02.451Z,629.00
2023-05-03T09:29:02.468Z,629.00
2023-05-03T09:30:02.692Z,635.00
2023-05-03T09:31:02.476Z,644.00
2023-05-03T09:32:02.590Z,654.00
2023-05-03T09:33:02.582Z,663.00
2023-05-03T09:34:02.518Z,670.00
2023-05-03T09:35:02.702Z,670.00
2023-05-03T09:36:02.568Z,690.00
2023-05-03T09:37:02.582Z,730.00
2023-05-03T09:38:02.581Z,741.00
2023-05-03T09:39:03.090Z,802.00
2023-05-03T09:40:02.828Z,826.00
2023-05-03T09:41:02.607Z,832.00
2023-05-03T09:42:02.601Z,834.00
2023-05-03T09:43:03.718Z,825.00
2023-05-03T09:44:02.632Z,813.00
2023-05-03T09:45:02.749Z,825.00
2023-05-03T09:46:02.617Z,836.00
2023-05-03T09:47:02.630Z,864.00
2023-05-03T09:48:02.619Z,922.00
2023-05-03T09:49:02.629Z,987.00
2023-05-03T09:50:02.694Z,1037.00
2023-05-03T09:51:02.771Z,1066.00
2023-05-03T09:52:02.809Z,1085.00
2023-05-03T09:53:02.860Z,1106.00
2023-05-03T09:54:02.891Z,1116.00
2023-05-03T09:55:03.190Z,1136.00
2023-05-03T09:56:02.988Z,1147.00
2023-05-03T09:57:03.005Z,1161.00
2023-05-03T09:58:03.080Z,1184.00
2023-05-03T09:59:03.051Z,1188.00
2023-05-03T10:00:03.084Z,1200.00
2023-05-03T10:01:03.154Z,1211.00
2023-05-03T10:02:03.115Z,1225.00
2023-05-03T10:03:03.211Z,1233.00
2023-05-03T10:04:03.205Z,1243.00
2023-05-03T10:05:03.406Z,1250.00
2023-05-03T10:06:03.205Z,1263.00
2023-05-03T10:07:03.152Z,1277.00
2023-05-03T10:08:03.154Z,1291.00
2023-05-03T10:09:03.184Z,1304.00
2023-05-03T10:10:03.269Z,1314.00
2023-05-03T10:11:03.243Z,1328.00
2023-05-03T10:12:03.296Z,1334.00
2023-05-03T10:13:03.258Z,1339.00
2023-05-03T10:14:03.308Z,1347.00
2023-05-03T10:15:03.559Z,1354.00
2023-05-03T10:16:03.411Z,1362.00
2023-05-03T10:17:03.353Z,1370.00
2023-05-03T10:18:03.393Z,1383.00
2023-05-03T10:19:03.416Z,1390.00
2023-05-03T10:20:03.364Z,1400.00
2023-05-03T10:21:03.366Z,1403.00
2023-05-03T10:22:03.427Z,1405.00
2023-05-03T10:23:03.417Z,1412.00
2023-05-03T10:24:03.427Z,1417.00
2023-05-03T10:25:05.373Z,1424.00
2023-05-03T10:26:03.532Z,1432.00
2023-05-03T10:27:03.537Z,1434.00
2023-05-03T10:28:03.517Z,1431.00
2023-05-03T10:29:03.528Z,1441.00
2023-05-03T10:30:03.680Z,1440.00
2023-05-03T10:31:03.598Z,1447.00
2023-05-03T10:32:03.585Z,1461.00
2023-05-03T10:33:03.599Z,1459.00
2023-05-03T10:34:03.597Z,1468.00
2023-05-03T10:35:04.477Z,1479.00
2023-05-03T10:36:03.676Z,1483.00
2023-05-03T10:37:03.711Z,1194.00
2023-05-03T10:38:03.913Z,1388.00
2023-05-03T10:39:03.728Z,1373.00
2023-05-03T10:40:03.780Z,1380.00
2023-05-03T10:41:03.930Z,1387.00
2023-05-03T10:42:03.926Z,1400.00
2023-05-03T10:43:03.923Z,1434.00
2023-05-03T10:44:03.958Z,1464.00
2023-05-03T10:45:04.117Z,1477.00
2023-05-03T10:46:03.940Z,1469.00
2023-05-03T10:47:03.937Z,1454.00
2023-05-03T10:48:03.973Z,1411.00
2023-05-03T10:49:03.940Z,1415.00
2023-05-03T10:50:03.976Z,1411.00
2023-05-03T10:51:03.951Z,1406.00
2023-05-03T10:52:03.972Z,1406.00
2023-05-03T10:53:03.926Z,1408.00
2023-05-03T10:54:04.003Z,1412.00
2023-05-03T10:55:04.164Z,1417.00
2023-05-03T10:56:04.053Z,1406.00
2023-05-03T10:57:04.045Z,1366.00
2023-05-03T10:58:04.071Z,1359.00
2023-05-03T10:59:04.077Z,1243.00
2023-05-03T11:00:04.083Z,1294.00
2023-05-03T11:01:04.086Z,1297.00
2023-05-03T11:02:04.231Z,1292.00
2023-05-03T11:03:04.179Z,1281.00
2023-05-03T11:04:04.207Z,1274.00
2023-05-03T11:05:04.936Z,1272.00
2023-05-03T11:06:04.232Z,1272.00
2023-05-03T11:07:04.155Z,1275.00
2023-05-03T11:08:04.165Z,1275.00
2023-05-03T11:09:04.144Z,1278.00
2023-05-03T11:10:04.207Z,1265.00
2023-05-03T11:11:04.200Z,1258.00
2023-05-03T11:12:04.187Z,1248.00
2023-05-03T11:13:04.188Z,1241.00
2023-05-03T11:14:04.247Z,1235.00
2023-05-03T11:15:04.443Z,1218.00
2023-05-03T11:16:04.284Z,1201.00
2023-05-03T11:17:04.254Z,1192.00
2023-05-03T11:18:04.266Z,1199.00
2023-05-03T11:19:04.265Z,1200.00
2023-05-03T11:20:04.269Z,1220.00
2023-05-03T11:21:04.280Z,1232.00
2023-05-03T11:22:04.353Z,1243.00
2023-05-03T11:23:04.343Z,1246.00
2023-05-03T11:24:04.430Z,1240.00
2023-05-03T11:25:04.633Z,1243.00
2023-05-03T11:26:04.749Z,1237.00
2023-05-03T11:27:08.067Z,1236.00
2023-05-03T11:28:04.546Z,1387.00
2023-05-03T11:29:04.507Z,1245.00
2023-05-03T11:30:04.486Z,1253.00
2023-05-03T11:31:04.497Z,1270.00
2023-05-03T11:32:04.533Z,1266.00
2023-05-03T11:33:04.522Z,1141.00
2023-05-03T11:34:04.499Z,1189.00
2023-05-03T11:35:04.689Z,1202.00
2023-05-03T11:36:04.511Z,1196.00
2023-05-03T11:37:04.488Z,1179.00
2023-05-03T11:38:04.465Z,1157.00
2023-05-03T11:39:04.450Z,1131.00
2023-05-03T11:40:04.446Z,1109.00
2023-05-03T11:41:04.445Z,1098.00
2023-05-03T11:42:04.781Z,1091.00
2023-05-03T11:43:04.419Z,1088.00
2023-05-03T11:44:14.933Z,1075.00
2023-05-03T11:45:05.600Z,1042.00
2023-05-03T11:46:04.483Z,1035.00
2023-05-03T11:47:04.633Z,1029.00
2023-05-03T11:48:04.465Z,1020.00
2023-05-03T11:49:04.390Z,995.00
2023-05-03T11:50:04.378Z,980.00
2023-05-03T11:51:04.349Z,966.00
2023-05-03T11:52:04.355Z,922.00
2023-05-03T11:53:04.345Z,906.00
2023-05-03T11:54:17.105Z,899.00
2023-05-03T11:55:05.531Z,889.00
2023-05-03T11:56:04.355Z,882.00
2023-05-03T11:57:04.333Z,877.00
2023-05-03T11:58:04.345Z,871.00
2023-05-03T11:59:04.337Z,866.00
2023-05-03T12:00:04.323Z,859.00
2023-05-03T12:01:04.360Z,844.00
2023-05-03T12:02:04.517Z,828.00
2023-05-03T12:03:04.437Z,821.00
2023-05-03T12:04:04.545Z,812.00
2023-05-03T12:05:04.809Z,807.00
2023-05-03T12:06:04.890Z,797.00
2023-05-03T12:07:05.216Z,782.00
2023-05-03T12:08:05.540Z,773.00
2023-05-03T12:09:04.462Z,769.00
2023-05-03T12:10:13.888Z,763.00
2023-05-03T12:11:06.172Z,755.00
2023-05-03T12:12:05.936Z,749.00
2023-05-03T12:13:05.228Z,743.00
2023-05-03T12:14:04.682Z,741.00
2023-05-03T12:15:07.411Z,724.00
2023-05-03T12:16:10.931Z,707.00
2023-05-03T12:17:07.418Z,758.00
2023-05-03T12:18:05.051Z,744.00
2023-05-03T12:19:04.773Z,724.00
2023-05-03T12:20:33.653Z,709.00
2023-05-03T12:21:29.076Z,706.00
2023-05-03T12:22:21.689Z,702.00